createdAt,value
2022-08-17T00:01:32.770Z,101031.50
2022-08-17T00:04:18.957Z,101037.56
2022-08-17T00:06:46.049Z,101039.50
2022-08-17T00:09:18.925Z,101042.50
2022-08-17T00:12:34.924Z,101045.53
2022-08-17T00:14:34.836Z,101041.41
2022-08-17T00:17:02.611Z,101030.97
2022-08-17T00:19:29.174Z,101034.81
2022-08-17T00:22:30.857Z,101037.03
2022-08-17T00:24:44.147Z,101035.09
2022-08-17T00:27:10.545Z,101029.84
2022-08-17T00:29:36.982Z,101034.28
2022-08-17T00:33:12.594Z,101029.03
2022-08-17T00:34:50.338Z,101027.13
2022-08-17T00:37:16.771Z,101023.00
2022-08-17T00:39:43.411Z,101027.41
2022-08-17T00:42:18.676Z,101021.09
2022-08-17T00:44:45.806Z,101019.44
2022-08-17T00:47:12.245Z,101015.03
2022-08-17T00:49:38.660Z,100997.75
2022-08-17T00:52:15.175Z,100999.38
2022-08-17T00:54:44.973Z,101000.47
2022-08-17T00:57:17.626Z,101003.22
2022-08-17T00:59:56.032Z,101000.47
2022-08-17T01:02:34.378Z,100996.66
2022-08-17T01:05:14.399Z,100993.91
2022-08-17T01:07:42.815Z,100993.91
2022-08-17T01:10:58.159Z,100998.56
2022-08-17T01:12:57.990Z,100991.97
2022-08-17T01:15:24.713Z,100991.44
2022-08-17T01:17:51.123Z,100989.22
2022-08-17T01:20:17.650Z,100989.22
2022-08-17T01:22:44.093Z,100992.78
2022-08-17T01:25:12.490Z,100993.06
2022-08-17T01:27:40.342Z,100997.75
2022-08-17T01:30:59.004Z,100999.94
2022-08-17T01:32:57.256Z,100995.25
2022-08-17T01:35:23.901Z,100989.78
2022-08-17T01:37:50.372Z,100998.81
2022-08-17T01:40:32.798Z,101006.53
2022-08-17T01:43:30.829Z,101001.25
2022-08-17T01:46:02.773Z,101002.91
2022-08-17T01:48:36.403Z,100998.78
2022-08-17T01:51:06.247Z,100992.81
2022-08-17T01:53:36.690Z,100995.25
2022-08-17T01:56:09.437Z,100987.56
2022-08-17T01:58:38.067Z,100982.88
2022-08-17T02:01:06.185Z,100980.94
2022-08-17T02:03:34.456Z,100984.50
2022-08-17T02:06:02.545Z,100996.91
2022-08-17T02:08:38.784Z,101001.53
2022-08-17T02:11:12.101Z,100993.56
2022-08-17T02:13:39.178Z,100987.25
2022-08-17T02:16:05.842Z,100989.19
2022-08-17T02:18:32.326Z,100994.94
2022-08-17T02:20:59.420Z,101016.91
2022-08-17T02:23:28.854Z,101030.88
2022-08-17T02:25:57.698Z,101101.72
2022-08-17T02:28:24.285Z,101098.88
2022-08-17T02:31:00.913Z,101111.16
2022-08-17T02:33:42.839Z,101093.31
2022-08-17T02:36:12.412Z,101078.19
2022-08-17T02:38:40.393Z,101052.38
2022-08-17T02:41:07.329Z,101047.31
2022-08-17T02:43:34.802Z,101043.94
2022-08-17T02:46:01.345Z,101049.13
2022-08-17T02:48:30.825Z,101039.03
2022-08-17T02:50:58.590Z,101039.03
2022-08-17T02:53:25.635Z,101037.34
2022-08-17T02:55:53.199Z,101039.75
2022-08-17T02:58:34.798Z,101043.59
2022-08-17T03:01:03.456Z,101050.19
2022-08-17T03:03:30.085Z,101059.25
2022-08-17T03:05:56.522Z,101067.47
2022-08-17T03:08:23.312Z,101071.31
2022-08-17T03:10:50.376Z,101084.69
2022-08-17T03:13:17.578Z,101112.91
2022-08-17T03:15:45.945Z,101115.03
2022-08-17T03:18:19.342Z,101117.72
2022-08-17T03:20:55.296Z,101118.25
2022-08-17T03:23:24.156Z,101123.09
2022-08-17T03:25:53.629Z,101133.75
2022-08-17T03:28:21.647Z,101128.00
2022-08-17T03:30:48.653Z,101125.81
2022-08-17T03:33:16.154Z,101122.19
2022-08-17T03:35:42.583Z,101127.09
2022-08-17T03:38:11.171Z,101109.84
2022-08-17T03:40:56.792Z,101101.94
2022-08-17T03:43:26.586Z,101094.78
2022-08-17T03:46:34.435Z,101095.34
2022-08-17T03:49:16.651Z,101102.97
2022-08-17T03:52:01.610Z,101098.81
2022-08-17T03:54:46.327Z,101096.84
2022-08-17T03:57:13.207Z,101071.34
2022-08-17T03:59:40.471Z,101069.88
2022-08-17T04:02:11.368Z,101066.28
2022-08-17T04:04:39.120Z,101065.97
2022-08-17T04:07:07.440Z,101065.66
2022-08-17T04:09:34.394Z,101065.94
2022-08-17T04:12:02.439Z,101055.69
2022-08-17T04:14:36.181Z,101058.38
2022-08-17T04:17:20.212Z,101058.94
2022-08-17T04:19:46.800Z,101061.66
2022-08-17T04:22:30.823Z,101061.66
2022-08-17T04:25:07.448Z,101059.97
2022-08-17T04:27:33.922Z,101065.69
2022-08-17T04:30:00.801Z,101061.63
2022-08-17T04:33:00.566Z,101058.13
2022-08-17T04:35:18.656Z,101069.13
2022-08-17T04:37:45.383Z,101071.03
2022-08-17T04:40:30.518Z,101079.50
2022-08-17T04:43:02.664Z,101102.78
2022-08-17T04:45:32.324Z,101106.09
2022-08-17T04:48:00.230Z,101110.56
2022-08-17T04:50:27.117Z,101090.84
2022-08-17T04:52:55.829Z,101062.34
2022-08-17T04:55:22.489Z,101055.72
2022-08-17T04:57:48.953Z,101065.63
2022-08-17T05:00:15.746Z,101067.28
2022-08-17T05:02:50.087Z,101071.09
2022-08-17T05:05:26.230Z,101062.06
2022-08-17T05:07:54.840Z,101048.63
2022-08-17T05:10:22.878Z,101040.41
2022-08-17T05:13:15.482Z,101044.13
2022-08-17T05:15:45.060Z,101052.56
2022-08-17T05:18:12.786Z,101065.97
2022-08-17T05:20:40.400Z,101077.50
2022-08-17T05:23:10.831Z,101095.56
2022-08-17T05:25:41.377Z,101099.44
2022-08-17T05:28:09.328Z,101086.56
2022-08-17T05:30:36.829Z,101067.38
2022-08-17T05:33:09.680Z,101064.63
2022-08-17T05:35:40.267Z,101056.75
2022-08-17T05:38:08.175Z,101056.75
2022-08-17T05:40:35.757Z,101044.38
2022-08-17T05:43:10.726Z,101046.81
2022-08-17T05:45:55.691Z,101048.72
2022-08-17T05:48:35.451Z,101042.66
2022-08-17T05:51:14.223Z,101042.16
2022-08-17T05:53:43.549Z,101034.47
2022-08-17T05:56:29.329Z,101021.56
2022-08-17T05:59:14.285Z,101020.72
2022-08-17T06:02:11.369Z,101027.84
2022-08-17T06:05:20.401Z,101036.38
2022-08-17T06:07:59.959Z,101041.84
2022-08-17T06:10:30.167Z,101045.94
2022-08-17T06:12:59.511Z,101056.09
2022-08-17T06:15:38.399Z,101067.09
2022-08-17T06:18:08.478Z,101072.31
2022-08-17T06:20:59.102Z,101077.53
2022-08-17T06:23:43.215Z,101085.75
2022-08-17T06:26:16.234Z,101092.91
2022-08-17T06:29:01.174Z,101081.72
2022-08-17T06:31:33.629Z,101081.41
2022-08-17T06:34:02.907Z,101077.28
2022-08-17T06:37:11.301Z,101075.63
2022-08-17T06:39:58.936Z,101084.66
2022-08-17T06:43:02.847Z,101074.53
2022-08-17T06:45:41.947Z,101076.94
2022-08-17T06:48:36.323Z,101076.91
2022-08-17T06:51:17.851Z,101080.16
2022-08-17T06:53:48.231Z,101084.25
2022-08-17T06:56:54.358Z,101080.09
2022-08-17T06:59:20.312Z,101094.28
2022-08-17T07:01:49.676Z,101106.38
2022-08-17T07:04:23.785Z,101117.06
2022-08-17T07:06:56.647Z,101118.44
2022-08-17T07:09:31.305Z,101111.84
2022-08-17T07:12:22.115Z,101106.81
2022-08-17T07:14:53.921Z,101103.19
2022-08-17T07:17:22.520Z,101096.63
2022-08-17T07:20:12.853Z,101108.84
2022-08-17T07:22:59.775Z,101108.28
2022-08-17T07:25:30.495Z,101115.41
2022-08-17T07:28:02.306Z,101124.44
2022-08-17T07:30:55.159Z,101126.84
2022-08-17T07:33:25.613Z,101123.19
2022-08-17T07:35:52.839Z,101122.88
2022-08-17T07:38:24.750Z,101111.16
2022-08-17T07:41:08.174Z,101109.38
2022-08-17T07:43:40.303Z,101110.00
2022-08-17T07:46:36.914Z,101106.25
2022-08-17T07:49:03.424Z,101105.44
2022-08-17T07:51:52.806Z,101108.41
2022-08-17T07:54:22.803Z,101110.06
2022-08-17T07:56:55.395Z,101108.50
2022-08-17T07:59:33.379Z,101109.63
2022-08-17T08:02:07.928Z,101119.81
2022-08-17T08:05:00.161Z,101101.22
2022-08-17T08:07:54.883Z,101121.78
2022-08-17T08:10:35.584Z,101122.00
2022-08-17T08:13:04.101Z,101115.78
2022-08-17T08:15:49.388Z,101128.63
2022-08-17T08:18:54.269Z,101125.88
2022-08-17T08:21:46.663Z,101126.78
2022-08-17T08:24:31.807Z,101131.19
2022-08-17T08:27:42.939Z,101126.59
2022-08-17T08:30:14.340Z,101133.22
2022-08-17T08:33:20.105Z,101142.56
2022-08-17T08:35:53.568Z,101131.00
2022-08-17T08:38:35.477Z,101137.28
2022-08-17T08:41:17.342Z,101137.00
2022-08-17T08:43:53.425Z,101138.44
2022-08-17T08:46:53.181Z,101128.56
2022-08-17T08:52:50.289Z,101125.84
2022-08-17T08:55:54.765Z,101137.91
2022-08-17T08:58:41.597Z,101139.84
2022-08-17T09:01:27.545Z,101141.78
2022-08-17T09:03:54.058Z,101140.44
2022-08-17T09:07:05.003Z,101138.53
2022-08-17T09:09:46.594Z,101144.00
2022-08-17T09:12:29.804Z,101150.88
2022-08-17T09:15:21.842Z,101155.81
2022-08-17T09:18:28.435Z,101157.53
2022-08-17T09:20:55.776Z,101157.13
2022-08-17T09:23:44.621Z,101156.91
2022-08-17T09:26:25.394Z,101158.22
2022-08-17T09:28:55.393Z,101163.19
2022-08-17T09:31:33.261Z,101161.22
2022-08-17T09:34:05.259Z,101159.25
2022-08-17T09:36:40.427Z,101162.88
2022-08-17T09:39:17.096Z,101168.97
2022-08-17T09:42:05.062Z,101162.19
2022-08-17T09:44:56.379Z,101171.28
2022-08-17T09:47:47.729Z,101175.91
2022-08-17T09:51:03.553Z,101178.06
2022-08-17T09:53:10.611Z,101172.59
2022-08-17T09:56:07.056Z,101165.78
2022-08-17T09:59:08.847Z,101172.69
2022-08-17T10:02:29.766Z,101171.59
2022-08-17T10:05:08.699Z,101189.97
2022-08-17T10:07:50.190Z,101206.13
2022-08-17T10:10:29.513Z,101216.84
2022-08-17T10:13:06.554Z,101215.50
2022-08-17T10:15:54.318Z,101217.41
2022-08-17T10:18:49.960Z,101221.22
2022-08-17T10:21:36.641Z,101230.22
2022-08-17T10:24:39.187Z,101219.00
2022-08-17T10:27:10.801Z,101236.78
2022-08-17T10:29:49.674Z,101235.94
2022-08-17T10:32:34.653Z,101214.03
2022-08-17T10:35:26.045Z,101160.88
2022-08-17T10:38:16.463Z,101109.34
2022-08-17T10:41:07.067Z,101091.16
2022-08-17T10:44:36.760Z,101102.81
2022-08-17T10:46:53.908Z,101113.69
2022-08-17T10:49:21.053Z,101110.63
2022-08-17T10:51:53.380Z,101125.41
2022-08-17T10:54:38.581Z,101134.38
2022-08-17T10:57:33.759Z,101127.00
2022-08-17T11:00:02.540Z,101138.38
2022-08-17T11:02:38.925Z,101154.69
2022-08-17T11:05:28.511Z,101165.72
2022-08-17T11:08:30.142Z,101169.66
2022-08-17T11:11:35.776Z,101181.81
2022-08-17T11:14:23.935Z,101186.28
2022-08-17T11:17:11.257Z,101196.72
2022-08-17T11:19:46.878Z,101197.63
2022-08-17T11:22:33.910Z,101211.34
2022-08-17T11:25:20.543Z,101213.31
2022-08-17T11:27:53.615Z,101216.59
2022-08-17T11:30:46.780Z,101213.59
2022-08-17T11:33:30.357Z,101217.66
2022-08-17T11:36:12.182Z,101222.31
2022-08-17T11:38:57.999Z,101228.88
2022-08-17T11:41:39.473Z,101234.78
2022-08-17T11:44:24.771Z,101239.84
2022-08-17T11:48:09.086Z,101248.81
2022-08-17T11:51:12.231Z,101259.75
2022-08-17T11:53:38.615Z,101254.53
2022-08-17T11:56:28.887Z,101255.13
2022-08-17T11:58:55.713Z,101258.94
2022-08-17T12:01:22.541Z,101250.97
2022-08-17T12:03:55.763Z,101254.19
2022-08-17T12:06:34.183Z,101264.56
2022-08-17T12:09:10.228Z,101268.13
2022-08-17T12:11:55.159Z,101274.44
2022-08-17T12:15:08.155Z,101276.84
2022-08-17T12:17:41.664Z,101276.84
2022-08-17T12:20:14.737Z,101281.47
2022-08-17T12:22:54.666Z,101281.75
2022-08-17T12:25:31.337Z,101280.16
2022-08-17T12:28:06.030Z,101277.91
2022-08-17T12:30:34.390Z,101277.66
2022-08-17T12:33:00.855Z,101265.06
2022-08-17T12:35:34.351Z,101258.50
2022-08-17T12:38:03.348Z,101259.09
2022-08-17T12:40:32.334Z,101250.06
2022-08-17T12:43:06.541Z,101241.59
2022-08-17T12:45:35.983Z,101229.59
2022-08-17T12:48:07.680Z,101230.44
2022-08-17T12:50:44.331Z,101220.22
2022-08-17T12:53:17.489Z,101227.88
2022-08-17T12:55:44.325Z,101213.38
2022-08-17T12:58:14.355Z,101214.19
2022-08-17T13:00:49.515Z,101216.34
2022-08-17T13:03:22.711Z,101210.38
2022-08-17T13:05:51.894Z,101207.41
2022-08-17T13:08:24.452Z,101204.91
2022-08-17T13:11:06.270Z,101202.16
2022-08-17T13:13:35.610Z,101205.66
2022-08-17T13:16:14.755Z,101204.56
2022-08-17T13:18:45.561Z,101207.91
2022-08-17T13:21:26.549Z,101206.25
2022-08-17T13:24:02.966Z,101202.91
2022-08-17T13:26:37.158Z,101199.09
2022-08-17T13:29:25.861Z,101200.69
2022-08-17T13:32:13.412Z,101191.06
2022-08-17T13:35:15.496Z,101180.94
2022-08-17T13:37:40.950Z,101172.75
2022-08-17T13:40:09.129Z,101177.28
2022-08-17T13:42:52.283Z,101177.28
2022-08-17T13:45:36.280Z,101178.97
2022-08-17T13:48:07.083Z,101165.28
2022-08-17T13:50:34.735Z,101162.47
2022-08-17T13:53:01.171Z,101159.44
2022-08-17T13:55:30.841Z,101170.44
2022-08-17T13:58:05.053Z,101166.28
2022-08-17T14:00:36.136Z,101175.56
2022-08-17T14:03:05.418Z,101181.59
2022-08-17T14:05:33.661Z,101174.00
2022-08-17T14:08:06.736Z,101171.25
2022-08-17T14:10:36.145Z,101161.16
2022-08-17T14:13:03.294Z,101163.06
2022-08-17T14:15:56.124Z,101167.22
2022-08-17T14:18:17.951Z,101170.78
2022-08-17T14:20:59.136Z,101175.09
2022-08-17T14:23:26.015Z,101173.66
2022-08-17T14:25:52.439Z,101168.25
2022-08-17T14:28:18.872Z,101166.94
2022-08-17T14:30:45.287Z,101167.28
2022-08-17T14:33:11.861Z,101167.88
2022-08-17T14:35:38.250Z,101163.00
2022-08-17T14:38:05.898Z,101157.25
2022-08-17T14:40:33.321Z,101158.34
2022-08-17T14:42:59.945Z,101158.66
2022-08-17T14:45:29.539Z,101157.84
2022-08-17T14:48:00.386Z,101148.94
2022-08-17T14:50:27.103Z,101144.66
2022-08-17T14:52:55.945Z,101149.13
2022-08-17T14:55:24.585Z,101151.09
2022-08-17T14:57:51.126Z,101156.91
2022-08-17T15:00:17.863Z,101143.25
2022-08-17T15:02:54.706Z,101156.31
2022-08-17T15:05:24.511Z,101150.84
2022-08-17T15:07:51.181Z,101146.94
2022-08-17T15:10:17.762Z,101143.97
2022-08-17T15:12:44.252Z,101144.81
2022-08-17T15:15:13.904Z,101139.66
2022-08-17T15:17:54.636Z,101141.03
2022-08-17T15:20:24.702Z,101142.94
2022-08-17T15:22:55.002Z,101145.44
2022-08-17T15:25:22.301Z,101144.91
2022-08-17T15:27:49.075Z,101141.16
2022-08-17T15:30:16.334Z,101150.78
2022-08-17T15:32:51.434Z,101148.88
2022-08-17T15:35:27.155Z,101156.81
2022-08-17T15:38:04.626Z,101153.81
2022-08-17T15:40:36.652Z,101157.13
2022-08-17T15:43:11.161Z,101162.34
2022-08-17T15:45:38.654Z,101160.88
2022-08-17T15:48:05.123Z,101151.28
2022-08-17T15:50:31.794Z,101158.13
2022-08-17T15:53:00.882Z,101163.63
2022-08-17T15:55:30.022Z,101163.00
2022-08-17T15:57:56.714Z,101160.50
2022-08-17T16:00:28.337Z,101144.91
2022-08-17T16:03:44.761Z,101157.53
2022-08-17T16:05:42.774Z,101151.75
2022-08-17T16:08:10.805Z,101156.38
2022-08-17T16:10:37.278Z,101157.22
2022-08-17T16:13:04.367Z,101159.69
2022-08-17T16:15:31.631Z,101156.72
2022-08-17T16:17:58.207Z,101158.34
2022-08-17T16:20:24.648Z,101155.31
2022-08-17T16:22:51.716Z,101162.69
2022-08-17T16:25:21.998Z,101159.44
2022-08-17T16:27:53.239Z,101153.38
2022-08-17T16:30:23.109Z,101151.75
2022-08-17T16:32:51.978Z,101158.03
2022-08-17T16:35:21.869Z,101156.63
2022-08-17T16:37:48.746Z,101152.25
2022-08-17T16:40:16.556Z,101157.44
2022-08-17T16:42:45.239Z,101152.28
2022-08-17T16:45:16.922Z,101160.50
2022-08-17T16:47:43.603Z,101161.09
2022-08-17T16:50:12.461Z,101160.00
2022-08-17T16:52:40.105Z,101166.06
2022-08-17T16:55:10.062Z,101162.47
2022-08-17T16:57:47.495Z,101166.28
2022-08-17T17:00:18.279Z,101170.91
2022-08-17T17:02:47.712Z,101167.91
2022-08-17T17:05:39.140Z,101178.03
2022-08-17T17:08:18.460Z,101181.56
2022-08-17T17:10:49.394Z,101183.22
2022-08-17T17:13:27.817Z,101184.06
2022-08-17T17:15:57.572Z,101179.28
2022-08-17T17:18:47.466Z,101181.97
2022-08-17T17:21:19.854Z,101174.91
2022-08-17T17:23:58.021Z,101175.47
2022-08-17T17:26:30.639Z,101168.34
2022-08-17T17:29:08.946Z,101169.66
2022-08-17T17:31:45.106Z,101156.75
2022-08-17T17:34:15.802Z,101158.78
2022-08-17T17:36:51.778Z,101162.22
2022-08-17T17:39:41.484Z,101158.16
2022-08-17T17:42:19.946Z,101176.47
2022-08-17T17:44:57.518Z,101173.50
2022-08-17T17:47:24.019Z,101187.72
2022-08-17T17:49:50.507Z,101193.78
2022-08-17T17:52:23.026Z,101202.50
2022-08-17T17:55:05.755Z,101205.72
2022-08-17T17:57:45.275Z,101200.78
2022-08-17T18:00:17.051Z,101208.28
2022-08-17T18:02:57.171Z,101209.88
2022-08-17T18:05:50.897Z,101215.34
2022-08-17T18:08:49.514Z,101207.13
2022-08-17T18:11:37.494Z,101208.22
2022-08-17T18:14:31.908Z,101206.53
2022-08-17T18:17:00.183Z,101208.56
2022-08-17T18:19:29.724Z,101211.28
2022-08-17T18:22:20.729Z,101207.50
2022-08-17T18:24:53.954Z,101209.38
2022-08-17T18:27:31.074Z,101212.69
2022-08-17T18:30:21.262Z,101220.91
2022-08-17T18:32:47.723Z,101226.63
2022-08-17T18:35:14.231Z,101224.94
2022-08-17T18:37:42.830Z,101234.72
2022-08-17T18:40:19.250Z,101235.56
2022-08-17T18:43:24.428Z,101231.44
2022-08-17T18:45:54.140Z,101240.47
2022-08-17T18:48:45.881Z,101243.19
2022-08-17T18:51:39.889Z,101247.25
2022-08-17T18:54:22.262Z,101249.16
2022-08-17T18:56:59.073Z,101251.63
2022-08-17T18:59:39.832Z,101248.31
2022-08-17T19:02:22.117Z,101248.88
2022-08-17T19:05:25.718Z,101246.69
2022-08-17T19:07:52.378Z,101238.97
2022-08-17T19:10:24.153Z,101250.38
2022-08-17T19:13:00.133Z,101244.34
2022-08-17T19:15:35.402Z,101240.53
2022-08-17T19:18:04.350Z,101242.44
2022-08-17T19:20:37.529Z,101247.91
2022-08-17T19:23:12.914Z,101252.78
2022-08-17T19:25:47.513Z,101245.94
2022-08-17T19:28:22.974Z,101247.50
2022-08-17T19:31:06.815Z,101257.09
2022-08-17T19:33:34.418Z,101260.91
2022-08-17T19:36:21.870Z,101264.47
2022-08-17T19:39:04.195Z,101267.44
2022-08-17T19:42:19.926Z,101272.66
2022-08-17T19:45:07.458Z,101274.09
2022-08-17T19:47:58.562Z,101280.38
2022-08-17T19:50:41.381Z,101281.44
2022-08-17T19:53:33.217Z,101285.00
2022-08-17T19:56:30.002Z,101286.09
2022-08-17T19:59:13.240Z,101285.75
2022-08-17T20:01:53.330Z,101282.44
2022-08-17T20:04:36.517Z,101289.81
2022-08-17T20:07:11.099Z,101285.16
2022-08-17T20:09:42.054Z,101288.72
2022-08-17T20:12:13.738Z,101284.94
2022-08-17T20:15:08.555Z,101285.75
2022-08-17T20:17:38.388Z,101289.53
2022-08-17T20:20:19.697Z,101288.56
2022-08-17T20:23:12.565Z,101282.75
2022-08-17T20:25:52.659Z,101290.47
2022-08-17T20:28:30.430Z,101286.38
2022-08-17T20:30:57.761Z,101291.63
2022-08-17T20:33:31.462Z,101286.16
2022-08-17T20:36:01.110Z,101278.78
2022-08-17T20:38:44.158Z,101280.69
2022-08-17T20:41:14.866Z,101271.97
2022-08-17T20:43:46.638Z,101274.72
2022-08-17T20:46:40.165Z,101288.88
2022-08-17T20:49:31.189Z,101272.63
2022-08-17T20:52:35.206Z,101269.09
2022-08-17T20:55:04.292Z,101257.66
2022-08-17T20:57:45.535Z,101251.38
2022-08-17T21:00:33.411Z,101255.75
2022-08-17T21:03:26.449Z,101260.06
2022-08-17T21:05:57.314Z,101260.06
2022-08-17T21:08:57.826Z,101260.53
2022-08-17T21:11:57.060Z,101257.25
2022-08-17T21:14:37.980Z,101264.00
2022-08-17T21:17:26.274Z,101264.00
2022-08-17T21:20:10.403Z,101265.66
2022-08-17T21:23:03.123Z,101267.81
2022-08-17T21:25:41.703Z,101270.56
2022-08-17T21:28:16.767Z,101264.97
2022-08-17T21:30:53.976Z,101272.13
2022-08-17T21:33:33.730Z,101269.63
2022-08-17T21:36:00.052Z,101283.88
2022-08-17T21:38:41.501Z,101279.81
2022-08-17T21:41:23.458Z,101277.66
2022-08-17T21:43:51.317Z,101284.22
2022-08-17T21:46:28.885Z,101289.09
2022-08-17T21:49:02.648Z,101295.38
2022-08-17T21:51:40.880Z,101293.38
2022-08-17T21:54:39.812Z,101303.22
2022-08-17T21:57:17.355Z,101313.56
2022-08-17T21:59:44.457Z,101306.69
2022-08-17T22:02:39.398Z,101312.16
2022-08-17T22:05:12.263Z,101320.94
2022-08-17T22:07:45.694Z,101318.56
2022-08-17T22:10:41.770Z,101324.38
2022-08-17T22:13:16.740Z,101319.13
2022-08-17T22:15:51.635Z,101315.56
2022-08-17T22:18:25.210Z,101308.47
2022-08-17T22:20:55.132Z,101315.56
2022-08-17T22:23:51.750Z,101309.28
2022-08-17T22:26:21.562Z,101304.91
2022-08-17T22:28:57.893Z,101316.88
2022-08-17T22:31:29.936Z,101307.03
2022-08-17T22:34:02.284Z,101316.31
2022-08-17T22:36:31.409Z,101324.50
2022-08-17T22:38:59.432Z,101329.72
2022-08-17T22:41:27.844Z,101326.97
2022-08-17T22:43:57.341Z,101327.72
2022-08-17T22:46:25.491Z,101326.06
2022-08-17T22:48:55.007Z,101326.88
2022-08-17T22:51:29.482Z,101334.00
2022-08-17T22:54:31.361Z,101332.94
2022-08-17T22:57:20.894Z,101331.03
2022-08-17T22:59:53.835Z,101339.81
2022-08-17T23:02:34.539Z,101338.50
2022-08-17T23:05:10.640Z,101336.34
2022-08-17T23:07:37.315Z,101327.50
2022-08-17T23:10:06.362Z,101334.81
2022-08-17T23:12:37.953Z,101330.91
2022-08-17T23:15:10.573Z,101327.72
2022-08-17T23:17:37.947Z,101327.81
2022-08-17T23:20:08.122Z,101326.97
2022-08-17T23:22:36.989Z,101323.41
2022-08-17T23:25:03.598Z,101317.03
2022-08-17T23:27:29.994Z,101316.44
2022-08-17T23:29:56.429Z,101322.25
2022-08-17T23:32:24.438Z,101320.69
2022-08-17T23:34:51.277Z,101321.88
2022-08-17T23:37:18.913Z,101317.47
2022-08-17T23:39:45.459Z,101310.94
2022-08-17T23:42:16.198Z,101307.38
2022-08-17T23:44:43.637Z,101312.84
2022-08-17T23:47:10.935Z,101320.47
2022-08-17T23:49:38.843Z,101326.75
2022-08-17T23:52:09.831Z,101331.41
2022-08-17T23:54:43.470Z,101325.59
2022-08-17T23:57:16.666Z,101327.22
2022-08-17T23:59:46.494Z,101325.94
